createdAt,value
2023-05-06T00:09:05.560Z,100.00
2023-05-06T00:11:32.052Z,100.00
2023-05-06T00:13:58.529Z,100.00
2023-05-06T00:16:25.065Z,100.00
2023-05-06T00:18:51.522Z,100.00
2023-05-06T00:21:17.941Z,100.00
2023-05-06T00:23:44.488Z,100.00
2023-05-06T00:31:27.641Z,100.00
2023-05-06T00:33:54.118Z,100.00
2023-05-06T00:36:20.659Z,100.00
2023-05-06T00:41:32.815Z,100.00
2023-05-06T00:49:20.530Z,100.00
2023-05-06T00:51:47.539Z,100.00
2023-05-06T01:02:12.657Z,100.00
2023-05-06T01:04:41.419Z,100.00
2023-05-06T01:07:32.800Z,100.00
2023-05-06T01:47:52.389Z,100.00
2023-05-06T02:11:56.149Z,100.00
2023-05-06T02:14:22.580Z,100.00
2023-05-06T02:19:31.160Z,100.00
2023-05-06T02:24:39.557Z,100.00
2023-05-06T02:27:09.309Z,100.00
2023-05-06T02:40:16.642Z,100.00
2023-05-06T02:42:43.085Z,100.00
2023-05-06T02:45:10.182Z,100.00
2023-05-06T02:47:36.815Z,100.00
2023-05-06T02:50:03.701Z,100.00
2023-05-06T02:52:30.152Z,100.00
2023-05-06T02:54:56.587Z,100.00
2023-05-06T02:57:23.015Z,100.00
2023-05-06T02:59:49.812Z,100.00
2023-05-06T03:02:16.220Z,100.00
2023-05-06T03:04:42.756Z,100.00
2023-05-06T03:07:09.229Z,100.00
2023-05-06T03:09:35.636Z,100.00
2023-05-06T03:12:02.253Z,100.00
2023-05-06T03:14:28.741Z,100.00
2023-05-06T03:16:55.514Z,100.00
2023-05-06T03:19:22.426Z,100.00
2023-05-06T03:21:49.336Z,100.00
2023-05-06T03:24:15.989Z,100.00
2023-05-06T03:26:42.395Z,100.00
2023-05-06T03:29:08.791Z,100.00
2023-05-06T03:31:35.464Z,100.00
2023-05-06T03:34:01.919Z,100.00
2023-05-06T03:36:29.474Z,100.00
2023-05-06T03:38:55.956Z,100.00
2023-05-06T03:41:23.741Z,100.00
2023-05-06T03:43:50.539Z,100.00
2023-05-06T03:46:17.133Z,100.00
2023-05-06T03:48:43.564Z,100.00
2023-05-06T03:51:10.245Z,100.00
2023-05-06T03:53:36.712Z,100.00
2023-05-06T03:56:03.174Z,100.00
2023-05-06T03:58:29.680Z,100.00
2023-05-06T04:00:56.146Z,100.00
2023-05-06T04:03:22.712Z,100.00
2023-05-06T04:05:50.494Z,100.00
2023-05-06T04:08:17.286Z,100.00
2023-05-06T04:10:43.773Z,100.00
2023-05-06T04:13:10.218Z,100.00
2023-05-06T04:15:37.599Z,100.00
2023-05-06T04:18:05.847Z,100.00
2023-05-06T04:20:32.261Z,100.00
2023-05-06T04:22:58.721Z,100.00
2023-05-06T04:25:25.190Z,100.00
2023-05-06T04:27:51.697Z,100.00
2023-05-06T04:30:18.314Z,100.00
2023-05-06T04:32:44.737Z,100.00
2023-05-06T04:35:11.317Z,100.00
2023-05-06T04:37:37.887Z,100.00
2023-05-06T04:40:05.707Z,100.00
2023-05-06T04:42:32.459Z,100.00
2023-05-06T04:44:59.374Z,100.00
2023-05-06T04:47:26.167Z,100.00
2023-05-06T04:49:52.661Z,100.00
2023-05-06T04:52:19.094Z,100.00
2023-05-06T04:54:45.793Z,100.00
2023-05-06T04:57:12.334Z,100.00
2023-05-06T04:59:38.797Z,100.00
2023-05-06T05:02:05.273Z,100.00
2023-05-06T05:04:31.714Z,100.00
2023-05-06T05:06:58.600Z,100.00
2023-05-06T05:09:25.058Z,100.00
2023-05-06T05:11:51.705Z,100.00
2023-05-06T05:14:18.127Z,100.00
2023-05-06T05:16:44.715Z,100.00
2023-05-06T05:19:11.179Z,100.00
2023-05-06T05:21:38.471Z,100.00
2023-05-06T05:24:05.200Z,100.00
2023-05-06T05:26:31.593Z,100.00
2023-05-06T05:28:58.008Z,100.00
2023-05-06T05:31:24.515Z,99.44
2023-05-06T05:33:51.047Z,99.35
2023-05-06T05:36:17.820Z,99.30
2023-05-06T05:38:44.256Z,98.84
2023-05-06T05:41:10.700Z,99.11
2023-05-06T05:43:37.129Z,99.09
2023-05-06T05:46:03.903Z,99.57
2023-05-06T05:48:32.607Z,98.67
2023-05-06T05:51:01.909Z,98.06
2023-05-06T05:53:28.677Z,98.07
2023-05-06T05:55:55.087Z,98.24
2023-05-06T05:58:21.718Z,97.80
2023-05-06T06:00:48.165Z,98.09
2023-05-06T06:03:14.652Z,97.42
2023-05-06T06:05:41.548Z,97.21
2023-05-06T06:08:08.530Z,96.42
2023-05-06T06:10:35.027Z,95.91
2023-05-06T06:13:01.702Z,94.99
2023-05-06T06:15:29.253Z,94.39
2023-05-06T06:17:55.840Z,94.78
2023-05-06T06:20:22.332Z,94.12
2023-05-06T06:22:48.781Z,94.16
2023-05-06T06:25:15.371Z,94.00
2023-05-06T06:27:41.788Z,93.17
2023-05-06T06:30:08.740Z,92.27
2023-05-06T06:32:35.371Z,92.85
2023-05-06T06:35:01.925Z,93.03
2023-05-06T06:37:28.396Z,92.45
2023-05-06T06:39:54.799Z,92.13
2023-05-06T06:42:21.356Z,91.95
2023-05-06T06:44:48.050Z,91.33
2023-05-06T06:47:14.460Z,91.45
2023-05-06T06:49:41.170Z,90.76
2023-05-06T06:52:07.586Z,90.17
2023-05-06T06:54:34.003Z,89.93
2023-05-06T06:57:03.451Z,89.94
2023-05-06T06:59:29.979Z,89.46
2023-05-06T07:01:56.375Z,90.04
2023-05-06T07:04:24.596Z,89.56
2023-05-06T07:06:51.661Z,89.22
2023-05-06T07:09:18.160Z,88.25
2023-05-06T07:11:44.698Z,89.32
2023-05-06T07:14:11.915Z,88.01
2023-05-06T07:16:38.412Z,87.34
2023-05-06T07:19:04.947Z,86.90
2023-05-06T07:21:34.544Z,87.51
2023-05-06T07:24:01.054Z,87.25
2023-05-06T07:26:27.502Z,87.04
2023-05-06T07:28:53.938Z,86.36
2023-05-06T07:31:21.132Z,85.50
2023-05-06T07:33:48.050Z,84.98
2023-05-06T07:36:14.552Z,85.39
2023-05-06T07:38:41.467Z,85.14
2023-05-06T07:41:07.946Z,83.95
2023-05-06T07:43:44.409Z,82.67
2023-05-06T07:46:11.272Z,82.13
2023-05-06T07:48:37.766Z,82.86
2023-05-06T07:51:04.494Z,82.91
2023-05-06T07:53:30.960Z,81.83
2023-05-06T07:56:02.028Z,81.75
2023-05-06T07:58:31.553Z,81.15
2023-05-06T08:00:58.968Z,80.05
2023-05-06T08:03:26.192Z,80.31
2023-05-06T08:05:53.553Z,79.47
2023-05-06T08:08:21.518Z,79.60
2023-05-06T08:10:48.060Z,79.17
2023-05-06T08:13:14.594Z,78.37
2023-05-06T08:15:41.497Z,78.97
2023-05-06T08:18:20.911Z,78.52
2023-05-06T08:20:49.054Z,78.76
2023-05-06T08:23:15.471Z,78.85
2023-05-06T08:25:42.116Z,78.63
2023-05-06T08:28:08.545Z,78.34
2023-05-06T08:30:34.985Z,77.59
2023-05-06T08:33:02.203Z,77.09
2023-05-06T08:35:28.770Z,76.54
2023-05-06T08:37:55.355Z,76.59
2023-05-06T08:40:23.391Z,76.04
2023-05-06T08:42:51.014Z,75.48
2023-05-06T08:45:17.957Z,75.32
2023-05-06T08:47:44.921Z,75.50
2023-05-06T08:50:11.903Z,74.99
2023-05-06T08:52:39.344Z,75.50
2023-05-06T08:55:07.285Z,76.57
2023-05-06T08:57:34.573Z,76.51
2023-05-06T09:00:01.730Z,75.48
2023-05-06T09:02:28.372Z,74.25
2023-05-06T09:04:56.414Z,74.03
2023-05-06T09:07:24.510Z,71.74
2023-05-06T09:09:51.604Z,71.50
2023-05-06T09:12:18.584Z,71.65
2023-05-06T09:14:46.570Z,67.80
2023-05-06T09:17:24.144Z,69.01
2023-05-06T09:19:52.919Z,68.55
2023-05-06T09:22:22.298Z,68.82
2023-05-06T09:24:58.036Z,69.25
2023-05-06T09:27:34.273Z,68.56
2023-05-06T09:30:06.918Z,68.55
2023-05-06T09:32:36.728Z,69.42
2023-05-06T09:35:05.261Z,70.70
2023-05-06T09:37:31.791Z,70.13
2023-05-06T09:40:00.589Z,69.83
2023-05-06T09:42:30.031Z,69.30
2023-05-06T09:45:02.186Z,68.77
2023-05-06T09:47:34.187Z,67.56
2023-05-06T09:50:04.381Z,66.05
2023-05-06T09:52:31.574Z,65.04
2023-05-06T09:54:58.393Z,64.65
2023-05-06T09:57:25.788Z,62.07
2023-05-06T09:59:53.948Z,58.13
2023-05-06T10:02:23.033Z,56.20
2023-05-06T10:04:50.912Z,57.43
2023-05-06T10:07:22.546Z,57.62
2023-05-06T10:09:50.217Z,57.25
2023-05-06T10:12:16.706Z,57.21
2023-05-06T10:14:43.130Z,55.03
2023-05-06T10:17:11.421Z,53.61
2023-05-06T10:19:45.302Z,53.04
2023-05-06T10:22:33.435Z,49.45
2023-05-06T10:25:06.285Z,48.26
2023-05-06T10:27:35.853Z,46.77
2023-05-06T10:30:02.297Z,45.81
2023-05-06T10:32:32.638Z,45.01
2023-05-06T10:35:08.125Z,44.13
2023-05-06T10:37:35.981Z,44.59
2023-05-06T10:40:04.690Z,45.98
2023-05-06T10:42:35.440Z,44.92
2023-05-06T10:45:06.301Z,45.54
2023-05-06T10:47:54.848Z,43.27
2023-05-06T10:50:24.973Z,41.11
2023-05-06T10:52:56.996Z,40.65
